Terminal Aerodrome Forecast
Issued by NWS

Home | Current Version | Previous Version | Graphics & Text | Print | Product List | Glossary On
Versions: 1 2 3 4 5 6 7 8 9 10 11 12 13 14 15 16 17 18 19 20 21 22 23 24 25 26 27 28 29 30 31 32
000
FTUS43 KLOT 020800 AAA
TAFORD
TAF AMD
KORD 020902Z 0209/0312 29007KT P6SM SCT250
     FM022000 VRB03KT P6SM SCT120 BKN200
     FM030000 15005KT P6SM OVC100
     FM030900 16008KT P6SM BKN050 OVC080
     FM031100 16012KT 3SM -SN SCT010 OVC045=

USA.gov is the U.S. government's official web portal to all federal, state and local government web resources and services.